Latest Weather Observations for Mount Lofty

IDS60901

Issued at 6:51 pm CST Tuesday 18 June 2024 (issued every 10 minutes, with the page automatically refreshed every 10 minutes)

About weather observations | Map of Adelaide area stations | Latest observations for Adelaide area | Other Formats
Station Details ID: 023842 Name: MOUNT LOFTY Lat: -34.98 Lon: 138.71 Height: 685.0 m
Data from the previous 72 hours. | See also: Recent months at Mount Lofty
Date/Time
CST
Temp
°C
App
Temp
°C
Dew
Point
°C
Rel
Hum
%
Delta-T
°C
Wind Press
QNH
hPa
Press
MSL
hPa
Rain since
9am
mm
Dir  Spd
km/h
Gust
km/h
Spd
kts
Gust
kts
18/06:30pm 9.3 6.7 6.2 81 1.5 NNW 9 13 5 7 - - 0.0
18/06:00pm 9.2 6.6 6.3 82 1.4 NNW 9 17 5 9 - - 0.0
18/05:30pm 9.0 6.9 6.6 85 1.2 NNW 7 11 4 6 - - 0.0
18/05:00pm 9.0 6.9 6.6 85 1.2 NNW 7 11 4 6 - - 0.0
18/04:30pm 9.0 6.9 6.6 85 1.2 NNW 7 11 4 6 - - 0.0
18/04:00pm 9.0 6.5 6.6 85 1.2 NNW 9 17 5 9 - - 0.0
18/03:30pm 9.0 6.2 6.8 86 1.1 NW 11 17 6 9 - - 0.0
18/03:00pm 8.9 6.4 6.5 85 1.2 NW 9 17 5 9 - - 0.0
18/02:30pm 9.3 6.4 6.7 84 1.3 NW 11 22 6 12 - - 0.0
18/02:00pm 9.4 6.9 6.5 82 1.4 NW 9 17 5 9 - - 0.0
18/01:30pm 9.3 6.4 6.4 82 1.4 NW 11 17 6 9 - - 0.0
18/01:00pm 8.7 6.1 6.0 83 1.3 NW 9 17 5 9 - - 0.0
18/12:30pm 8.8 6.2 6.3 84 1.2 NW 9 17 5 9 - - 0.0
18/12:00pm 9.0 6.4 6.3 83 1.3 NW 9 19 5 10 - - 0.0
18/11:30am 8.9 6.4 6.5 85 1.2 NW 9 19 5 10 - - 0.0
18/11:00am 9.2 7.2 7.2 87 1.0 NNW 7 13 4 7 - - 0.0
18/10:30am 8.7 6.6 6.7 87 1.0 NW 7 11 4 6 - - 0.0
18/10:00am 8.1 6.0 6.6 90 0.7 NW 7 13 4 7 - - 0.0
18/09:30am 8.0 5.9 6.5 90 0.7 NW 7 11 4 6 - - 0.0
18/09:00am 7.9 5.4 6.4 90 0.7 NW 9 15 5 8 - - 0.0
18/08:30am 7.6 5.5 6.5 93 0.5 NNW 7 9 4 5 - - 0.0
18/08:00am 6.8 4.6 6.1 95 0.3 NNW 7 11 4 6 - - 0.0
18/07:30am 7.1 4.9 5.1 87 0.9 N 6 11 3 6 - - 0.0
18/07:00am 7.1 5.2 4.9 86 1.0 NNE 4 7 2 4 - - 0.0
18/06:30am 7.0 5.0 4.5 84 1.1 NE 4 7 2 4 - - 0.0
18/06:00am 7.4 5.1 4.7 83 1.2 N 6 9 3 5 - - 0.0
18/05:30am 7.0 4.5 4.8 86 1.0 N 7 15 4 8 - - 0.0
18/05:00am 6.7 3.8 4.7 87 0.9 N 9 17 5 9 - - 0.0
18/04:30am 6.7 3.7 4.0 83 1.2 N 9 15 5 8 - - 0.0
18/04:00am 6.8 4.1 3.6 80 1.4 N 7 13 4 7 - - 0.0
18/03:30am 6.8 4.2 3.1 77 1.6 N 6 9 3 5 - - 0.0
18/03:00am 6.7 4.0 3.9 82 1.2 N 7 13 4 7 - - 0.0
18/02:30am 6.7 4.2 4.0 83 1.2 N 6 9 3 5 - - 0.0
18/02:00am 6.7 4.1 4.2 84 1.1 N 7 15 4 8 - - 0.0
18/01:30am 6.6 4.0 4.1 84 1.1 NNW 7 13 4 7 - - 0.0
18/01:00am 6.7 4.1 4.2 84 1.1 NNW 7 13 4 7 - - 0.0
18/12:30am 6.7 3.7 4.0 83 1.2 NNW 9 15 5 8 - - 0.0
18/12:00am 6.5 3.5 4.3 86 1.0 NNW 9 13 5 7 - - 0.0
 
Date/Time
CST
Temp
°C
App
Temp
°C
Dew
Point
°C
Rel
Hum
%
Delta-T
°C
Wind Press
QNH
hPa
Press
MSL
hPa
Rain since
9am
mm
Dir  Spd
km/h
Gust
km/h
Spd
kts
Gust
kts
17/11:30pm 6.6 4.5 3.8 82 1.2 NNW 4 7 2 4 - - 0.0
17/11:00pm 6.6 4.0 3.4 80 1.4 N 6 9 3 5 - - 0.0
17/10:30pm 6.9 3.8 3.5 79 1.5 NNW 9 15 5 8 - - 0.0
17/10:00pm 6.9 3.7 3.0 76 1.7 NNW 9 13 5 7 - - 0.0
17/09:30pm 6.8 4.0 2.9 76 1.7 NNW 7 11 4 6 - - 0.0
17/09:00pm 6.9 4.1 3.0 76 1.7 NNW 7 13 4 7 - - 0.0
17/08:30pm 7.0 4.2 2.9 75 1.8 NNW 7 11 4 6 - - 0.0
17/08:00pm 6.8 4.2 3.1 77 1.6 N 6 9 3 5 - - 0.0
17/07:30pm 7.1 4.5 3.2 76 1.7 N 6 7 3 4 - - 0.0
17/07:00pm 7.0 4.4 3.1 76 1.7 NNE 6 9 3 5 - - 0.0
17/06:30pm 6.7 4.1 3.0 77 1.6 NNW 6 7 3 4 - - 0.0
17/06:00pm 6.7 4.5 3.3 79 1.5 NW 4 7 2 4 - - 0.0
17/05:30pm 6.3 3.8 4.0 85 1.0 NW 6 9 3 5 - - 0.0
17/05:00pm 6.7 4.2 3.9 82 1.2 NW 6 9 3 5 - - 0.0
17/04:30pm 7.2 4.6 3.3 76 1.7 N 6 7 3 4 - - 0.0
17/04:00pm 7.4 5.2 3.5 76 1.7 NNW 4 7 2 4 - - 0.0
17/03:30pm 7.5 5.6 3.0 73 2.0 NE 2 6 1 3 - - 0.0
17/03:00pm 8.0 4.8 3.1 71 2.2 NW 9 15 5 8 - - 0.0
17/02:30pm 8.1 5.1 1.9 65 2.7 NW 7 15 4 8 - - 0.0
17/02:00pm 8.3 5.4 1.5 62 2.9 NNW 6 9 3 5 - - 0.0
17/01:30pm 8.9 5.7 3.1 67 2.6 NW 9 17 5 9 - - 0.0
17/01:00pm 9.5 6.6 1.7 58 3.4 NNW 6 13 3 7 - - 0.0
17/12:30pm 8.7 6.2 1.8 62 3.0 NW 4 7 2 4 - - 0.0
17/12:00pm 9.5 7.1 2.4 61 3.1 NNE 4 7 2 4 - - 0.0
17/11:30am 9.1 6.9 3.3 67 2.6 N 4 7 2 4 - - 0.0
17/11:00am 8.8 6.8 4.6 75 1.9 E 4 6 2 3 - - 0.0
17/10:30am 7.4 4.9 3.8 78 1.6 E 6 7 3 4 - - 0.0
17/10:00am 5.9 3.3 3.4 84 1.1 ENE 6 9 3 5 - - 0.0
17/09:30am 5.9 3.8 4.1 88 0.8 ESE 4 7 2 4 - - 0.0
17/09:00am 5.5 3.0 4.0 90 0.7 ESE 6 11 3 6 - - 0.4
17/08:30am 4.5 2.3 3.3 92 0.5 ESE 4 7 2 4 - - 0.4
17/08:00am 4.1 1.9 3.1 93 0.4 ESE 4 6 2 3 - - 0.4
17/07:30am 3.5 1.2 2.9 96 0.3 ESE 4 6 2 3 - - 0.4
17/07:00am 3.3 0.6 2.9 97 0.2 ESE 6 9 3 5 - - 0.4
17/06:30am 3.3 0.5 2.9 97 0.2 ESE 7 11 4 6 - - 0.4
17/06:00am 3.3 0.5 2.9 97 0.2 ESE 7 13 4 7 - - 0.4
17/05:30am 3.4 0.6 3.0 97 0.2 ESE 7 11 4 6 - - 0.2
17/05:00am 3.4 0.6 3.0 97 0.2 ESE 7 11 4 6 - - 0.2
17/04:30am 3.4 0.8 3.0 97 0.2 ESE 6 9 3 5 - - 0.2
17/04:00am 3.4 0.5 2.8 96 0.3 ESE 7 11 4 6 - - 0.2
17/03:30am 3.2 0.5 2.8 97 0.2 ESE 6 9 3 5 - - 0.2
17/03:00am 3.4 0.7 2.8 96 0.3 ESE 6 9 3 5 - - 0.2
17/02:30am 3.3 0.6 2.7 96 0.3 ESE 6 9 3 5 - - 0.2
17/02:00am 3.3 0.6 2.7 96 0.3 ESE 6 7 3 4 - - 0.2
17/01:30am 3.4 1.1 2.8 96 0.3 ESE 4 9 2 5 - - 0.2
17/01:00am 3.4 1.1 2.7 95 0.3 ESE 4 6 2 3 - - 0.2
17/12:30am 3.5 0.8 2.9 96 0.3 ESE 6 6 3 3 - - 0.2
17/12:00am 3.5 0.8 2.9 96 0.3 ESE 6 9 3 5 - - 0.2
 
Date/Time
CST
Temp
°C
App
Temp
°C
Dew
Point
°C
Rel
Hum
%
Delta-T
°C
Wind Press
QNH
hPa
Press
MSL
hPa
Rain since
9am
mm
Dir  Spd
km/h
Gust
km/h
Spd
kts
Gust
kts
16/11:30pm 3.6 0.9 2.9 95 0.3 ESE 6 9 3 5 - - 0.2
16/11:00pm 3.8 1.1 2.9 94 0.4 ESE 6 9 3 5 - - 0.2
16/10:30pm 3.6 0.8 2.9 95 0.3 ESE 7 11 4 6 - - 0.2
16/10:00pm 3.8 1.0 2.9 94 0.4 ESE 7 11 4 6 - - 0.2
16/09:30pm 4.1 1.0 3.4 95 0.3 ESE 9 15 5 8 - - 0.2
16/09:00pm 3.9 1.1 3.2 95 0.3 ESE 7 13 4 7 - - 0.2
16/08:30pm 3.8 1.0 3.2 96 0.3 ESE 7 11 4 6 - - 0.2
16/08:00pm 3.8 1.0 3.2 96 0.3 ESE 7 13 4 7 - - 0.2
16/07:30pm 3.7 0.9 3.0 95 0.3 ESE 7 11 4 6 - - 0.2
16/07:00pm 3.7 1.1 3.0 95 0.3 ESE 6 9 3 5 - - 0.2
16/06:30pm 4.0 1.4 3.1 94 0.4 ESE 6 9 3 5 - - 0.0
16/06:00pm 4.3 1.7 3.3 93 0.4 ESE 6 11 3 6 - - 0.0
16/05:30pm 4.5 2.0 3.5 93 0.4 ESE 6 9 3 5 - - 0.0
16/05:00pm 5.1 2.4 3.8 91 0.6 ESE 7 11 4 6 - - 0.0
16/04:30pm 6.3 3.7 4.3 87 0.9 ESE 7 13 4 7 - - 0.0
16/04:00pm 7.3 5.0 4.8 84 1.1 ESE 6 9 3 5 - - 0.0
16/03:30pm 7.7 5.2 4.8 82 1.3 ESE 7 13 4 7 - - 0.0
16/03:00pm 8.3 6.1 5.1 80 1.5 ESE 6 9 3 5 - - 0.0
16/02:30pm 9.0 6.9 5.9 81 1.5 ESE 6 15 3 8 - - 0.0
16/02:00pm 8.5 6.1 5.3 80 1.5 ESE 7 13 4 7 - - 0.0
16/01:30pm 9.2 7.4 5.2 76 1.9 SE 4 9 2 5 - - 0.0
16/01:00pm 9.0 6.9 5.9 81 1.5 ESE 6 13 3 7 - - 0.0
16/12:30pm 9.4 8.2 6.3 81 1.5 E 2 6 1 3 - - 0.0
16/12:00pm 9.3 8.2 6.9 85 1.2 E 2 6 1 3 - - 0.0
16/11:30am 7.7 6.0 6.0 89 0.8 ESE 4 11 2 6 - - 0.0
16/11:00am 6.9 5.3 6.3 96 0.3 SE 4 7 2 4 - - 0.0
16/10:30am 6.7 4.6 6.6 99 0.0 ESE 7 15 4 8 - - 0.0
16/10:00am 6.5 4.5 6.4 99 0.0 ESE 6 11 3 6 - - 0.0
16/09:30am 5.8 3.1 5.7 99 0.0 ESE 9 13 5 7 - - 0.0
16/09:00am 5.0 1.8 4.9 99 0.0 ESE 11 17 6 9 - - 0.4
16/08:30am 4.6 1.7 4.5 99 0.0 ESE 9 15 5 8 - - 0.4
16/08:00am 4.1 1.1 4.0 99 0.0 ESE 9 15 5 8 - - 0.4
16/07:30am 3.9 0.8 3.8 99 0.0 ESE 9 13 5 7 - - 0.4
16/07:00am 3.8 1.1 3.7 99 0.0 ESE 7 15 4 8 - - 0.4
16/06:30am 4.0 1.3 3.9 99 0.0 ESE 7 13 4 7 - - 0.4
16/06:00am 4.2 1.6 4.1 99 0.0 ESE 7 13 4 7 - - 0.4
16/05:30am 4.3 1.7 4.2 99 0.0 ESE 7 15 4 8 - - 0.4
16/05:00am 4.8 2.3 4.7 99 0.0 ESE 7 13 4 7 - - 0.4
16/04:30am 5.2 2.0 5.1 99 0.0 ESE 11 17 6 9 - - 0.4
16/04:00am 5.5 3.1 5.4 99 0.0 ESE 7 11 4 6 - - 0.4
16/03:30am 5.7 3.6 5.6 99 0.0 ESE 6 13 3 7 - - 0.4
16/03:00am 5.7 3.9 5.6 99 0.0 ESE 4 11 2 6 - - 0.4
16/02:30am 5.6 3.4 5.5 99 0.0 ESE 6 11 3 6 - - 0.4
16/02:00am 5.5 3.3 5.4 99 0.0 ESE 6 17 3 9 - - 0.4
16/01:30am 5.1 2.8 5.0 99 0.0 ESE 6 9 3 5 - - 0.4
16/01:00am 5.2 3.0 5.1 99 0.0 ESE 6 11 3 6 - - 0.4
16/12:30am 5.4 3.6 5.3 99 0.0 ESE 4 9 2 5 - - 0.4
16/12:00am 5.3 3.1 5.2 99 0.0 ESE 6 9 3 5 - - 0.4
 
Date/Time
CST
Temp
°C
App
Temp
°C
Dew
Point
°C
Rel
Hum
%
Delta-T
°C
Wind Press
QNH
hPa
Press
MSL
hPa
Rain since
9am
mm
Dir  Spd
km/h
Gust
km/h
Spd
kts
Gust
kts
15/11:30pm 5.0 2.5 4.9 99 0.0 ESE 7 13 4 7 - - 0.4
15/11:00pm 5.1 2.3 5.0 99 0.0 ESE 9 13 5 7 - - 0.4
15/10:30pm 5.4 2.2 5.3 99 0.0 ESE 11 19 6 10 - - 0.4
15/10:00pm 5.6 2.5 5.5 99 0.0 ESE 11 20 6 11 - - 0.4
15/09:30pm 5.7 2.6 5.6 99 0.0 SE 11 20 6 11 - - 0.4
15/09:00pm 5.7 2.6 5.6 99 0.0 SE 11 20 6 11 - - 0.4
15/08:30pm 5.5 2.0 5.4 99 0.0 ESE 13 22 7 12 - - 0.4
15/08:00pm 5.5 2.4 5.4 99 0.0 ESE 11 24 6 13 - - 0.4
15/07:30pm 5.5 2.0 5.4 99 0.0 ESE 13 24 7 13 - - 0.4
15/07:00pm 5.5 2.0 5.4 99 0.0 ESE 13 24 7 13 - - 0.4

Latest Capital City Observations: Canberra | Sydney | Melbourne | Brisbane | Adelaide | Perth | Hobart | Darwin

Other formats

Comma delimited format used in spreadsheet applications
http://www.bom.gov.au/fwo/IDS60901/IDS60901.95678.axf

JavaScript Object Notation format (JSON) in row-major order
http://www.bom.gov.au/fwo/IDS60901/IDS60901.95678.json

Data quality

Most of these data are generated automatically and are frequently updated. Quality checks on data are not normally performed. It is possible for incorrect values to appear. Refer to information at About Latest Weather Observations and please check the disclaimer before using these data.